Time;durP1;ratioP1;P1;durP2;ratioP2;P2;SDS_P1;SDS_P2;PMS_P1;PMS_P2;Temp;Humidity;BMP_temperature;BMP_pressure;BME280_temperature;BME280_humidity;BME280_pressure;Samples;Min_cycle;Max_cycle;Signal;HPM_P1;HPM_P2
2022/06/23 00:00:34;;;;;;;4.30;3.60;;;16.90;95.20;;;;;;5002368;28;20477;-86
2022/06/23 00:03:01;;;;;;;5.53;3.40;;;16.80;95.80;;;;;;5016075;28;20430;-86
2022/06/23 00:05:35;;;;;;;6.47;3.90;;;16.80;95.50;;;;;;5014834;28;20902;-86
2022/06/23 00:08:01;;;;;;;7.00;3.83;;;16.80;95.60;;;;;;5015656;28;20801;-86
2022/06/23 00:10:35;;;;;;;4.83;4.00;;;16.70;95.90;;;;;;5015573;28;20442;-86
2022/06/23 00:13:03;;;;;;;3.97;3.50;;;16.70;95.90;;;;;;5002230;28;20423;-86
2022/06/23 00:15:37;;;;;;;5.67;3.73;;;16.60;95.80;;;;;;5015933;28;20443;-86
2022/06/23 00:18:06;;;;;;;6.73;3.60;;;16.60;96.00;;;;;;5015321;28;20480;-86
2022/06/23 00:20:48;;;;;;;4.83;3.50;;;16.60;96.20;;;;;;5005306;28;20447;-86
2022/06/23 00:23:17;;;;;;;4.10;3.57;;;16.50;96.30;;;;;;5014971;28;20410;-86
2022/06/23 00:26:19;;;;;;;6.27;4.37;;;16.50;96.40;;;;;;5016047;28;20423;-86
2022/06/23 00:28:50;;;;;;;4.27;3.70;;;16.40;96.70;;;;;;4999452;28;20422;-86
2022/06/23 00:31:27;;;;;;;4.80;4.30;;;16.40;96.80;;;;;;5010681;28;20514;-86
2022/06/23 00:33:55;;;;;;;4.97;3.90;;;16.30;97.00;;;;;;5008822;28;20411;-86
2022/06/23 00:36:46;;;;;;;5.53;4.17;;;16.30;97.10;;;;;;5015305;28;20416;-86
2022/06/23 00:39:37;;;;;;;4.70;3.67;;;16.20;97.20;;;;;;5032971;28;20566;-86
2022/06/23 00:42:05;;;;;;;6.20;4.33;;;16.10;97.30;;;;;;5002153;28;20431;-86
2022/06/23 00:44:51;;;;;;;5.27;4.00;;;16.10;97.30;;;;;;5007149;28;20423;-86
2022/06/23 00:47:21;;;;;;;5.13;4.87;;;16.00;97.30;;;;;;5011746;28;20506;-86
2022/06/23 00:50:09;;;;;;;6.00;4.00;;;16.00;97.30;;;;;;5008538;28;20430;-86
2022/06/23 00:52:44;;;;;;;5.60;4.50;;;16.00;97.30;;;;;;5006354;28;20455;-86
2022/06/23 00:55:16;;;;;;;4.77;3.70;;;15.90;97.30;;;;;;5006855;28;20845;-86
2022/06/23 00:57:49;;;;;;;3.97;3.40;;;15.90;97.30;;;;;;5029801;28;20482;-86
2022/06/23 01:00:14;;;;;;;4.10;3.50;;;15.90;97.30;;;;;;5013308;28;20495;-86
2022/06/23 01:03:00;;;;;;;5.50;4.27;;;15.80;97.30;;;;;;5013441;28;21036;-86
2022/06/23 01:05:48;;;;;;;11.67;4.43;;;15.70;97.30;;;;;;5013091;28;20172;-86
2022/06/23 01:08:21;;;;;;;5.90;4.20;;;15.70;97.30;;;;;;5012971;28;20573;-87
2022/06/23 01:11:03;;;;;;;5.10;4.13;;;15.60;97.30;;;;;;5012497;28;20546;-86
2022/06/23 01:13:31;;;;;;;5.10;4.20;;;15.60;97.30;;;;;;5002783;28;20411;-86
2022/06/23 01:16:22;;;;;;;4.40;4.10;;;15.60;97.30;;;;;;5013312;28;20876;-86
2022/06/23 01:19:04;;;;;;;5.03;4.50;;;15.50;97.30;;;;;;5002447;28;20415;-86
2022/06/23 01:21:36;;;;;;;4.40;4.07;;;15.50;97.30;;;;;;5009415;28;20511;-86
2022/06/23 01:24:12;;;;;;;5.40;4.60;;;15.40;97.30;;;;;;5022972;28;20510;-86
2022/06/23 01:26:56;;;;;;;7.50;4.70;;;15.40;97.30;;;;;;5012693;28;20439;-86
2022/06/23 01:29:30;;;;;;;5.60;4.23;;;15.30;97.30;;;;;;5013352;28;20482;-86
2022/06/23 01:32:06;;;;;;;5.93;4.10;;;15.30;97.30;;;;;;5012487;28;20985;-86
2022/06/23 01:34:46;;;;;;;5.57;3.90;;;15.30;97.30;;;;;;5013160;28;20411;-87
2022/06/23 01:37:25;;;;;;;5.90;4.20;;;15.30;97.30;;;;;;5012810;28;20983;-86
2022/06/23 01:40:02;;;;;;;4.90;4.00;;;15.20;97.30;;;;;;5013140;28;20832;-86
2022/06/23 01:42:45;;;;;;;5.30;4.77;;;15.20;97.30;;;;;;5012658;28;20993;-87
2022/06/23 01:45:23;;;;;;;6.20;4.37;;;15.20;97.30;;;;;;5030375;28;20809;-86
2022/06/23 01:47:52;;;;;;;5.07;3.73;;;15.10;97.30;;;;;;4974744;28;1097900;-86
2022/06/23 01:50:25;;;;;;;6.40;4.20;;;15.00;97.30;;;;;;5013646;28;20193;-86
2022/06/23 01:53:18;;;;;;;6.30;4.17;;;15.00;97.30;;;;;;5012588;28;20455;-86
2022/06/23 01:56:12;;;;;;;12.23;4.67;;;15.00;97.30;;;;;;5013254;28;20782;-86
2022/06/23 01:59:00;;;;;;;8.73;4.13;;;15.00;97.30;;;;;;4993983;28;20474;-87
2022/06/23 02:01:41;;;;;;;4.80;4.47;;;14.90;97.30;;;;;;5013044;28;20415;-86
2022/06/23 02:04:36;;;;;;;6.30;4.43;;;14.90;97.30;;;;;;5013153;28;20415;-86
2022/06/23 02:07:13;;;;;;;6.77;4.33;;;14.80;97.30;;;;;;5013628;28;20465;-86
2022/06/23 02:09:47;;;;;;;5.57;4.30;;;14.80;97.30;;;;;;5013022;28;20426;-86
2022/06/23 02:12:27;;;;;;;5.77;4.60;;;14.70;97.30;;;;;;5031340;28;20455;-86
2022/06/23 02:15:16;;;;;;;5.60;3.83;;;14.70;97.30;;;;;;5012874;28;20415;-86
2022/06/23 02:17:56;;;;;;;6.67;4.30;;;14.70;97.30;;;;;;5008050;28;20548;-86
2022/06/23 02:21:01;;;;;;;4.97;4.27;;;14.70;97.30;;;;;;5006881;28;20415;-86
2022/06/23 02:23:32;;;;;;;5.50;4.33;;;14.70;97.30;;;;;;5006306;28;20418;-86
2022/06/23 02:26:05;;;;;;;5.43;4.20;;;14.60;97.30;;;;;;5012922;28;20811;-86
2022/06/23 02:28:40;;;;;;;4.20;3.90;;;14.60;97.30;;;;;;5011722;28;20462;-86
2022/06/23 02:31:34;;;;;;;6.37;4.03;;;14.60;97.30;;;;;;5002152;28;20818;-86
2022/06/23 02:34:18;;;;;;;5.00;4.00;;;14.60;97.30;;;;;;4995792;28;20456;-86
2022/06/23 02:37:21;;;;;;;7.73;4.90;;;14.50;97.30;;;;;;5009105;28;20534;-86
2022/06/23 02:39:51;;;;;;;9.47;4.60;;;14.40;97.30;;;;;;5012667;28;20445;-86
2022/06/23 02:42:30;;;;;;;7.53;4.80;;;14.40;97.30;;;;;;5012904;28;20424;-86
2022/06/23 02:45:23;;;;;;;5.80;4.33;;;14.40;97.30;;;;;;5012479;28;20458;-86
2022/06/23 02:48:00;;;;;;;7.17;4.70;;;14.40;97.30;;;;;;5011260;28;20490;-86
2022/06/23 02:50:38;;;;;;;4.00;3.73;;;14.40;97.30;;;;;;5022900;28;20569;-86
2022/06/23 02:53:24;;;;;;;5.80;4.63;;;14.40;97.30;;;;;;5011145;28;20419;-86
2022/06/23 02:56:18;;;;;;;5.20;4.50;;;14.40;97.30;;;;;;5012876;28;20411;-86
2022/06/23 02:58:54;;;;;;;5.13;4.53;;;14.30;97.30;;;;;;5011489;28;20413;-86
2022/06/23 03:01:50;;;;;;;6.53;4.90;;;14.20;97.30;;;;;;5001229;28;20457;-86
2022/06/23 03:04:29;;;;;;;5.70;3.93;;;14.20;97.30;;;;;;5012070;28;20418;-87
2022/06/23 03:07:13;;;;;;;4.97;4.53;;;14.20;97.30;;;;;;5012759;28;20432;-86
2022/06/23 03:09:44;;;;;;;5.97;4.57;;;14.20;97.30;;;;;;5006991;28;20419;-86
2022/06/23 03:12:27;;;;;;;9.10;4.40;;;14.20;97.30;;;;;;4993073;28;20537;-86
2022/06/23 03:15:06;;;;;;;13.60;6.90;;;14.10;97.30;;;;;;5001857;28;20411;-86
2022/06/23 03:17:54;;;;;;;6.70;4.90;;;14.20;97.30;;;;;;4999326;28;20904;-86
2022/06/23 03:20:27;;;;;;;7.20;4.57;;;14.10;97.30;;;;;;5030241;28;20760;-86
2022/06/23 03:23:01;;;;;;;7.00;4.33;;;14.10;97.30;;;;;;5012567;28;20433;-86
2022/06/23 03:25:32;;;;;;;6.60;4.27;;;14.10;97.30;;;;;;5012337;28;20474;-86
2022/06/23 03:28:03;;;;;;;5.70;4.77;;;14.10;97.30;;;;;;5011673;28;20434;-86
2022/06/23 03:30:54;;;;;;;6.20;5.37;;;14.10;97.30;;;;;;5011755;28;20461;-86
2022/06/23 03:33:28;;;;;;;6.20;4.63;;;14.10;97.30;;;;;;5012985;28;20431;-86
2022/06/23 03:35:59;;;;;;;6.20;4.63;;;14.10;97.30;;;;;;5007754;28;20510;-87
2022/06/23 03:41:59;;;;;;;9.00;5.27;;;14.00;97.30;;;;;;4983019;28;20452;-86
2022/06/23 03:44:29;;;;;;;5.70;4.80;;;13.90;97.30;;;;;;5016392;28;20423;-86
2022/06/23 03:47:20;;;;;;;8.37;4.60;;;13.90;97.30;;;;;;5015961;28;20467;-86
2022/06/23 03:50:17;;;;;;;11.93;5.53;;;13.90;97.30;;;;;;5016045;28;20548;-86
2022/06/23 03:52:48;;;;;;;6.00;4.73;;;14.00;97.30;;;;;;5016319;28;20458;-86
2022/06/23 03:55:29;;;;;;;7.30;4.90;;;14.00;97.30;;;;;;5016826;28;20411;-86
2022/06/23 03:58:00;;;;;;;5.93;4.53;;;14.00;97.30;;;;;;5016458;28;20982;-86
2022/06/23 04:00:39;;;;;;;8.73;5.53;;;14.00;97.30;;;;;;5016529;28;20419;-86
2022/06/23 04:03:11;;;;;;;10.13;5.40;;;14.00;97.30;;;;;;5013037;28;20517;-87
2022/06/23 04:06:12;;;;;;;9.73;6.67;;;14.10;97.30;;;;;;5016085;28;20419;-86
2022/06/23 04:08:46;;;;;;;5.13;4.83;;;14.10;97.30;;;;;;5015993;28;20429;-87
2022/06/23 04:14:04;;;;;;;6.63;5.00;;;14.20;97.30;;;;;;5034003;28;20442;-86
2022/06/23 04:16:33;;;;;;;6.47;4.30;;;14.30;97.30;;;;;;5015504;28;20975;-86
2022/06/23 04:19:05;;;;;;;8.27;4.90;;;14.40;97.30;;;;;;5015513;28;20415;-86
2022/06/23 04:21:31;;;;;;;7.87;4.63;;;14.40;97.30;;;;;;5015868;28;20407;-86
2022/06/23 04:24:02;;;;;;;6.67;4.97;;;14.50;97.30;;;;;;5015612;28;20799;-86
2022/06/23 04:26:41;;;;;;;7.30;4.80;;;14.50;97.30;;;;;;5015398;28;20208;-86
2022/06/23 04:29:34;;;;;;;9.53;5.53;;;14.60;97.30;;;;;;5015037;28;20421;-86
2022/06/23 04:32:20;;;;;;;8.40;6.43;;;14.60;97.30;;;;;;5005528;28;20455;-86
2022/06/23 04:35:17;;;;;;;11.23;6.33;;;14.70;97.30;;;;;;5007546;28;20427;-86
2022/06/23 04:37:52;;;;;;;7.47;5.47;;;14.80;97.30;;;;;;4996497;28;20438;-86
2022/06/23 04:40:32;;;;;;;11.17;6.30;;;14.80;97.30;;;;;;5015444;28;20468;-87
2022/06/23 04:43:19;;;;;;;9.90;5.97;;;14.90;97.30;;;;;;5003266;28;20431;-86
2022/06/23 04:46:03;;;;;;;8.13;5.67;;;15.00;97.30;;;;;;5003807;28;20442;-86
2022/06/23 04:48:42;;;;;;;8.30;6.30;;;15.00;97.30;;;;;;5015469;28;20505;-86
2022/06/23 04:51:31;;;;;;;10.50;6.10;;;15.10;97.30;;;;;;5014821;28;20556;-86
2022/06/23 04:54:04;;;;;;;8.03;5.73;;;15.20;97.30;;;;;;5004856;28;20411;-87
2022/06/23 04:56:35;;;;;;;7.73;6.00;;;15.30;97.30;;;;;;5002589;28;20435;-86
2022/06/23 04:59:30;;;;;;;9.97;5.80;;;15.30;97.30;;;;;;5014024;28;20952;-86
2022/06/23 05:02:00;;;;;;;9.50;6.70;;;15.40;97.30;;;;;;4996641;28;20459;-86
2022/06/23 05:04:41;;;;;;;8.80;6.03;;;15.40;97.30;;;;;;5029635;28;20798;-86
2022/06/23 05:07:29;;;;;;;11.13;7.10;;;15.50;97.30;;;;;;5006892;28;20447;-86
2022/06/23 05:10:00;;;;;;;8.50;6.50;;;15.50;97.30;;;;;;5003606;28;20416;-86
2022/06/23 05:12:40;;;;;;;8.17;6.43;;;15.60;97.30;;;;;;5014880;28;20463;-86
2022/06/23 05:15:09;;;;;;;12.20;6.40;;;15.60;97.30;;;;;;5014908;28;20751;-86
2022/06/23 05:17:40;;;;;;;7.90;6.60;;;15.70;97.30;;;;;;5010507;28;20439;-86
2022/06/23 05:20:07;;;;;;;8.97;6.40;;;15.80;97.30;;;;;;5007165;28;20430;-86
2022/06/23 05:22:44;;;;;;;9.43;6.93;;;15.80;97.30;;;;;;5014844;28;20509;-86
2022/06/23 05:25:32;;;;;;;13.73;6.33;;;15.90;97.30;;;;;;5014896;28;20928;-86
2022/06/23 05:27:58;;;;;;;12.03;6.60;;;15.90;97.30;;;;;;5014756;28;20504;-86
2022/06/23 05:30:28;;;;;;;8.10;6.93;;;16.00;97.30;;;;;;5015180;28;20506;-86
2022/06/23 05:33:14;;;;;;;8.93;6.00;;;16.00;97.30;;;;;;5015052;28;20494;-86
2022/06/23 05:35:53;;;;;;;9.30;6.50;;;16.10;97.30;;;;;;5001640;28;20419;-86
2022/06/23 05:38:30;;;;;;;8.50;6.33;;;16.10;97.30;;;;;;5001469;28;20441;-86
2022/06/23 05:41:04;;;;;;;7.77;5.63;;;16.20;97.30;;;;;;5014933;28;20411;-86
2022/06/23 05:43:35;;;;;;;7.60;6.23;;;16.20;97.30;;;;;;5014532;28;21010;-86
2022/06/23 05:46:04;;;;;;;8.03;6.57;;;16.30;97.30;;;;;;5014644;28;20443;-86
2022/06/23 05:48:35;;;;;;;9.67;6.33;;;16.30;97.30;;;;;;5013842;28;20463;-86
2022/06/23 05:51:06;;;;;;;11.10;6.37;;;16.30;97.30;;;;;;5014170;28;20460;-86
2022/06/23 05:53:50;;;;;;;9.77;7.20;;;16.40;97.30;;;;;;5013699;28;20442;-86
2022/06/23 05:56:38;;;;;;;7.10;5.90;;;16.50;97.30;;;;;;5013578;28;20477;-86
2022/06/23 05:59:15;;;;;;;9.50;5.87;;;16.60;97.30;;;;;;5013861;28;20407;-86
2022/06/23 06:02:21;;;;;;;11.50;5.90;;;16.70;97.30;;;;;;5013408;28;20594;-86
2022/06/23 06:04:52;;;;;;;10.80;7.43;;;16.80;97.30;;;;;;5010276;28;20422;-86
2022/06/23 06:07:22;;;;;;;14.20;5.73;;;16.80;97.30;;;;;;5000784;28;20454;-86
2022/06/23 06:09:49;;;;;;;10.17;6.13;;;17.00;97.30;;;;;;5014203;28;20423;-86
2022/06/23 06:12:22;;;;;;;12.17;6.30;;;17.00;97.30;;;;;;5013712;28;20455;-86
2022/06/23 06:15:18;;;;;;;6.70;5.50;;;17.10;97.30;;;;;;5006088;28;20922;-86
2022/06/23 06:17:45;;;;;;;7.40;5.07;;;17.20;97.30;;;;;;4979840;28;20530;-86
2022/06/23 06:20:13;;;;;;;7.80;4.70;;;17.30;97.30;;;;;;5001694;28;20420;-85
2022/06/23 06:23:00;;;;;;;10.47;5.40;;;17.40;97.00;;;;;;5000327;28;20839;-85
2022/06/23 06:25:30;;;;;;;9.93;5.10;;;17.40;96.60;;;;;;5000570;28;20794;-86
2022/06/23 06:28:01;;;;;;;7.97;5.63;;;17.50;96.20;;;;;;5013679;28;20789;-86
2022/06/23 06:30:31;;;;;;;5.93;4.93;;;17.50;95.80;;;;;;5013916;28;20427;-86
2022/06/23 06:32:58;;;;;;;8.20;5.10;;;17.60;95.50;;;;;;5003305;28;21056;-86
2022/06/23 06:35:27;;;;;;;12.90;5.77;;;17.70;95.40;;;;;;5011107;28;20857;-86
2022/06/23 06:37:59;;;;;;;7.10;5.67;;;17.80;94.80;;;;;;5012920;28;20986;-86
2022/06/23 06:40:27;;;;;;;7.13;5.30;;;18.00;94.80;;;;;;5013710;28;20419;-86
2022/06/23 06:42:59;;;;;;;6.60;5.20;;;18.20;94.60;;;;;;5013137;28;20459;-85
2022/06/23 06:45:33;;;;;;;6.40;5.20;;;18.30;94.10;;;;;;5012484;28;20430;-86
2022/06/23 06:48:00;;;;;;;6.63;4.80;;;18.40;94.10;;;;;;4999214;28;20499;-85
2022/06/23 06:50:42;;;;;;;6.27;5.47;;;18.50;94.40;;;;;;5013005;28;20419;-86
2022/06/23 06:53:22;;;;;;;7.90;4.77;;;18.60;94.00;;;;;;4999796;28;20466;-86
2022/06/23 06:55:52;;;;;;;7.17;5.00;;;18.80;93.70;;;;;;5013392;28;20422;-86
2022/06/23 06:58:28;;;;;;;7.77;5.20;;;18.90;93.40;;;;;;5012964;28;20526;-86
2022/06/23 07:01:06;;;;;;;7.17;5.10;;;19.00;92.70;;;;;;5012818;28;20940;-86
2022/06/23 07:03:33;;;;;;;6.33;5.00;;;19.10;92.40;;;;;;5007053;28;20826;-86
2022/06/23 07:06:34;;;;;;;7.10;5.10;;;19.20;91.70;;;;;;5008842;28;20778;-86
2022/06/23 07:09:11;;;;;;;7.00;4.97;;;19.40;91.30;;;;;;4969764;28;20518;-86
2022/06/23 07:11:58;;;;;;;9.03;4.80;;;19.50;90.90;;;;;;5004985;28;20460;-86
2022/06/23 07:14:37;;;;;;;9.93;4.97;;;19.60;91.00;;;;;;5013303;28;20411;-85
2022/06/23 07:17:13;;;;;;;11.20;4.80;;;19.70;90.40;;;;;;5013610;28;20958;-86
2022/06/23 07:19:51;;;;;;;7.03;5.23;;;19.80;90.50;;;;;;5001253;28;20418;-86
2022/06/23 07:22:24;;;;;;;6.20;4.83;;;20.00;90.60;;;;;;5012905;28;20442;-86
2022/06/23 07:24:53;;;;;;;6.57;4.90;;;20.10;90.30;;;;;;5012649;28;20472;-85
2022/06/23 07:27:28;;;;;;;7.63;4.10;;;20.20;89.70;;;;;;5007993;28;20530;-85
2022/06/23 07:30:12;;;;;;;6.00;4.70;;;20.40;89.50;;;;;;5005557;28;20414;-86
2022/06/23 07:32:52;;;;;;;6.60;5.67;;;20.50;89.50;;;;;;5004461;28;20463;-86
2022/06/23 07:35:39;;;;;;;6.37;4.70;;;20.60;89.20;;;;;;5010129;28;20500;-86
2022/06/23 07:38:14;;;;;;;5.10;4.47;;;20.70;88.10;;;;;;5012367;28;20439;-86
2022/06/23 07:40:48;;;;;;;5.73;4.13;;;20.80;87.20;;;;;;5012598;28;20415;-86
2022/06/23 07:43:26;;;;;;;7.30;4.93;;;20.90;87.60;;;;;;5012981;28;20415;-86
2022/06/23 07:45:55;;;;;;;10.07;4.63;;;21.00;87.70;;;;;;5013109;28;20422;-86
2022/06/23 07:48:22;;;;;;;11.50;4.73;;;21.20;88.00;;;;;;5001810;28;20475;-86
2022/06/23 07:50:48;;;;;;;9.07;4.97;;;21.30;86.70;;;;;;5010601;28;20430;-86
2022/06/23 07:53:21;;;;;;;13.23;5.10;;;21.40;86.50;;;;;;5012246;28;20454;-86
2022/06/23 07:55:48;;;;;;;4.80;4.53;;;21.50;86.40;;;;;;5012521;28;20188;-86
2022/06/23 07:58:17;;;;;;;6.53;4.90;;;21.60;86.30;;;;;;5012698;28;20508;-84
2022/06/23 08:00:46;;;;;;;6.10;4.37;;;21.80;87.50;;;;;;4999896;28;20407;-83
2022/06/23 08:03:22;;;;;;;6.83;4.13;;;21.90;87.60;;;;;;5010121;28;20924;-84
2022/06/23 08:05:57;;;;;;;6.10;4.90;;;22.10;86.80;;;;;;5012341;28;20427;-84
2022/06/23 08:08:30;;;;;;;6.63;4.40;;;22.20;85.60;;;;;;5012348;28;20528;-84
2022/06/23 08:13:46;;;;;;;6.47;4.10;;;22.40;86.20;;;;;;5030351;28;20410;-85
2022/06/23 08:19:18;;;;;;;5.90;4.03;;;22.70;86.70;;;;;;5026929;28;20502;-85
2022/06/23 08:21:53;;;;;;;5.30;3.90;;;22.80;85.70;;;;;;5033819;28;20912;-84
2022/06/23 08:24:24;;;;;;;7.73;4.20;;;23.00;83.30;;;;;;5019080;28;20517;-85
2022/06/23 08:27:24;;;;;;;5.23;4.00;;;23.10;83.30;;;;;;5015109;28;20661;-84
2022/06/23 08:29:55;;;;;;;4.97;3.53;;;23.30;83.50;;;;;;5015513;28;20425;-85
2022/06/23 08:32:21;;;;;;;5.20;4.10;;;23.40;81.00;;;;;;5015529;28;20435;-85
2022/06/23 08:35:09;;;;;;;6.00;3.97;;;23.50;79.90;;;;;;5015419;28;20461;-85
2022/06/23 08:37:44;;;;;;;4.23;3.67;;;23.70;80.80;;;;;;5015227;28;20842;-84
2022/06/23 08:40:36;;;;;;;5.97;3.47;;;23.80;81.00;;;;;;5015622;28;20466;-85
2022/06/23 08:43:34;;;;;;;4.77;3.47;;;24.00;79.50;;;;;;5027001;28;20865;-84
2022/06/23 08:46:24;;;;;;;3.90;3.23;;;24.20;79.20;;;;;;5013322;28;20407;-85
2022/06/23 08:49:03;;;;;;;3.33;2.57;;;24.30;78.10;;;;;;5001614;28;20486;-85
2022/06/23 08:51:40;;;;;;;4.17;2.63;;;24.50;76.50;;;;;;5014750;28;20471;-85
2022/06/23 08:54:25;;;;;;;6.73;2.70;;;24.70;75.40;;;;;;5014904;28;20419;-85
2022/06/23 08:57:03;;;;;;;4.00;2.60;;;24.90;75.40;;;;;;5015699;28;20447;-84
2022/06/23 08:59:49;;;;;;;2.87;2.50;;;25.00;73.10;;;;;;5033037;28;20425;-83
2022/06/23 09:02:30;;;;;;;3.63;2.57;;;25.10;71.90;;;;;;5033677;28;20506;-84
2022/06/23 09:05:08;;;;;;;4.17;3.10;;;25.20;70.20;;;;;;5006180;28;20507;-84
2022/06/23 09:08:04;;;;;;;3.83;3.00;;;25.30;70.60;;;;;;5013834;28;20462;-84
2022/06/23 09:10:52;;;;;;;2.93;2.40;;;25.40;71.60;;;;;;5015506;28;20454;-83
2022/06/23 09:13:31;;;;;;;4.20;3.03;;;25.50;70.90;;;;;;5003010;28;20894;-84
2022/06/23 09:16:31;;;;;;;3.60;2.40;;;25.60;69.30;;;;;;5003277;28;20403;-84
2022/06/23 09:19:34;;;;;;;7.77;2.90;;;25.70;69.80;;;;;;5015199;28;20408;-84
2022/06/23 09:22:22;;;;;;;4.00;2.80;;;25.80;68.70;;;;;;5014870;28;20419;-84
2022/06/23 09:25:12;;;;;;;3.73;2.50;;;25.90;68.10;;;;;;5014709;28;20431;-85
2022/06/23 09:27:59;;;;;;;3.20;2.70;;;25.90;68.10;;;;;;5015141;28;20435;-83
2022/06/23 09:30:44;;;;;;;3.93;2.17;;;26.00;68.30;;;;;;5014084;28;20414;-84
2022/06/23 09:33:22;;;;;;;5.83;2.43;;;26.00;68.20;;;;;;5001480;28;20454;-84
2022/06/23 09:36:02;;;;;;;2.37;2.17;;;26.10;68.70;;;;;;5032697;28;20403;-84
2022/06/23 09:39:05;;;;;;;6.10;3.00;;;26.10;68.70;;;;;;5014219;28;20550;-84
2022/06/23 09:41:55;;;;;;;2.90;2.47;;;26.30;68.20;;;;;;5014070;28;20792;-82
2022/06/23 09:44:47;;;;;;;5.57;2.37;;;26.30;68.10;;;;;;5013447;28;20453;-84
2022/06/23 09:47:58;;;;;;;4.30;2.77;;;26.40;68.30;;;;;;5032384;28;20470;-84
2022/06/23 09:50:44;;;;;;;3.60;2.50;;;26.50;69.10;;;;;;5031867;28;20494;-84
2022/06/23 09:53:35;;;;;;;9.67;3.37;;;26.60;68.60;;;;;;5001188;28;20465;-84
2022/06/23 09:56:18;;;;;;;5.33;2.50;;;26.70;69.80;;;;;;5013469;28;20435;-85
2022/06/23 09:58:53;;;;;;;4.70;2.50;;;26.90;69.70;;;;;;5013961;28;20818;-83
2022/06/23 10:01:39;;;;;;;5.40;2.70;;;27.00;68.70;;;;;;5002514;28;20423;-85
2022/06/23 10:04:25;;;;;;;3.90;2.50;;;27.20;68.30;;;;;;5013724;28;20426;-84
2022/06/23 10:07:23;;;;;;;5.90;2.60;;;27.30;68.40;;;;;;5003245;28;20431;-84
2022/06/23 10:09:48;;;;;;;6.80;2.73;;;27.40;67.30;;;;;;4958860;28;20514;-84
2022/06/23 10:12:38;;;;;;;3.80;2.87;;;27.40;66.60;;;;;;4999908;28;20543;-84
2022/06/23 10:15:41;;;;;;;7.80;3.00;;;27.50;67.00;;;;;;5004282;28;20199;-82
2022/06/23 10:18:36;;;;;;;2.87;2.67;;;27.60;66.80;;;;;;5003261;28;20435;-82
2022/06/23 10:21:09;;;;;;;2.87;2.70;;;27.60;65.80;;;;;;5013121;28;20522;-83
2022/06/23 10:23:49;;;;;;;3.40;2.63;;;27.70;66.80;;;;;;5013346;28;20502;-83
2022/06/23 10:26:33;;;;;;;4.70;2.90;;;27.70;66.60;;;;;;5004714;28;20783;-84
2022/06/23 10:29:21;;;;;;;4.90;3.00;;;27.80;66.60;;;;;;5012289;28;20760;-84
2022/06/23 10:32:05;;;;;;;4.37;2.60;;;27.90;66.80;;;;;;5030652;28;20446;-85
2022/06/23 10:34:58;;;;;;;2.90;2.67;;;28.00;66.80;;;;;;5005266;28;20404;-85
2022/06/23 10:37:38;;;;;;;5.80;2.60;;;28.10;67.00;;;;;;5001539;28;20450;-85
2022/06/23 10:40:12;;;;;;;3.10;2.70;;;28.20;67.50;;;;;;5013156;28;20511;-85
2022/06/23 10:43:02;;;;;;;5.20;2.50;;;28.40;66.80;;;;;;5012932;28;20410;-85
2022/06/23 10:45:42;;;;;;;4.57;3.03;;;28.50;66.50;;;;;;4999704;28;20732;-85
2022/06/23 10:48:30;;;;;;;4.30;2.33;;;28.50;64.80;;;;;;5013289;28;20467;-85
2022/06/23 10:51:14;;;;;;;6.33;2.90;;;28.60;66.50;;;;;;5001896;28;20506;-84
2022/06/23 10:53:46;;;;;;;3.13;2.40;;;28.70;65.40;;;;;;5030642;28;20423;-84
2022/06/23 10:56:44;;;;;;;2.67;2.47;;;28.80;66.30;;;;;;5012937;28;20867;-85
2022/06/23 10:59:26;;;;;;;4.97;2.77;;;28.90;66.00;;;;;;5003814;28;20415;-84
2022/06/23 11:02:16;;;;;;;4.47;2.50;;;29.00;66.20;;;;;;5006062;28;20784;-83
2022/06/23 11:05:14;;;;;;;3.53;2.67;;;29.00;65.50;;;;;;5011083;28;20412;-85
2022/06/23 11:08:08;;;;;;;2.80;2.60;;;29.00;64.50;;;;;;5017452;28;20439;-85
2022/06/23 11:11:06;;;;;;;3.83;2.47;;;29.00;64.80;;;;;;5030187;28;20418;-85
2022/06/23 11:13:51;;;;;;;2.50;2.30;;;29.10;65.80;;;;;;5030176;28;20408;-85
2022/06/23 11:16:34;;;;;;;5.47;2.50;;;29.10;65.40;;;;;;5000100;28;20498;-85
2022/06/23 11:19:21;;;;;;;2.80;2.60;;;29.20;65.80;;;;;;5013194;28;20836;-85
2022/06/23 11:22:35;;;;;;;3.70;2.83;;;29.30;65.10;;;;;;5013054;28;20556;-85
2022/06/23 11:25:24;;;;;;;3.83;2.23;;;29.40;65.90;;;;;;4994871;28;20427;-85
2022/06/23 11:28:21;;;;;;;5.10;2.87;;;29.50;65.90;;;;;;5001971;28;20469;-85
2022/06/23 11:30:58;;;;;;;2.63;2.43;;;29.60;65.50;;;;;;4999390;28;20952;-85
2022/06/23 11:33:39;;;;;;;3.03;2.60;;;29.70;62.80;;;;;;5012085;28;20458;-85
2022/06/23 11:36:35;;;;;;;2.80;2.33;;;29.80;63.10;;;;;;5012591;28;20420;-85
2022/06/23 11:39:23;;;;;;;2.00;1.90;;;29.90;62.80;;;;;;5000319;28;20998;-85
2022/06/23 11:42:15;;;;;;;2.77;2.00;;;30.00;62.50;;;;;;5012191;28;20412;-85
2022/06/23 11:45:00;;;;;;;4.73;2.00;;;30.00;61.60;;;;;;5012770;28;20510;-86
2022/06/23 11:47:48;;;;;;;2.50;1.90;;;30.20;61.30;;;;;;5012493;28;20462;-85
2022/06/23 11:50:20;;;;;;;2.50;2.30;;;30.30;61.30;;;;;;5012637;28;20472;-85
2022/06/23 11:53:18;;;;;;;2.53;2.20;;;30.40;61.80;;;;;;5011569;28;21093;-84
2022/06/23 11:55:52;;;;;;;5.37;2.70;;;30.50;62.00;;;;;;5014485;28;20409;-85
2022/06/23 11:58:53;;;;;;;3.07;2.60;;;30.50;62.90;;;;;;4996835;28;20439;-85
2022/06/23 12:01:21;;;;;;;2.40;2.20;;;30.60;62.90;;;;;;5013843;28;20458;-85
2022/06/23 12:04:04;;;;;;;2.77;2.40;;;30.60;62.50;;;;;;5016329;28;20403;-85
2022/06/23 12:07:02;;;;;;;2.50;2.30;;;30.70;63.00;;;;;;5016070;28;20537;-85
2022/06/23 12:09:46;;;;;;;3.60;2.87;;;30.70;63.20;;;;;;5010754;28;20881;-85
2022/06/23 12:12:12;;;;;;;3.43;2.83;;;30.70;62.50;;;;;;5012996;28;20451;-85
2022/06/23 12:14:38;;;;;;;6.27;2.70;;;30.70;62.00;;;;;;5015437;28;20417;-85
2022/06/23 12:17:27;;;;;;;2.90;2.70;;;30.70;62.40;;;;;;5016363;28;20489;-86
2022/06/23 12:20:11;;;;;;;2.90;2.70;;;30.80;63.30;;;;;;5025384;28;20539;-85
2022/06/23 12:23:12;;;;;;;3.07;2.37;;;30.80;62.40;;;;;;5007011;28;20938;-84
2022/06/23 12:26:08;;;;;;;3.67;2.93;;;30.80;62.20;;;;;;5017401;28;20769;-86
2022/06/23 12:28:52;;;;;;;4.73;3.10;;;30.80;62.60;;;;;;5014966;28;20769;-85
2022/06/23 12:31:39;;;;;;;4.00;2.83;;;30.90;62.30;;;;;;5013758;28;20407;-86
2022/06/23 12:34:30;;;;;;;2.80;2.43;;;31.00;62.10;;;;;;5015452;28;20411;-85
2022/06/23 12:37:13;;;;;;;4.50;2.60;;;31.10;62.20;;;;;;5011676;28;20444;-86
2022/06/23 12:39:44;;;;;;;4.20;2.80;;;31.20;61.90;;;;;;5013759;28;20809;-85
2022/06/23 12:42:28;;;;;;;3.80;2.77;;;31.30;61.30;;;;;;5020206;28;20427;-86
2022/06/23 12:45:21;;;;;;;4.27;2.67;;;31.30;61.20;;;;;;5007278;28;20514;-86
2022/06/23 12:47:54;;;;;;;6.50;2.40;;;31.40;62.80;;;;;;5017047;28;20470;-85
2022/06/23 12:50:41;;;;;;;3.43;2.40;;;31.50;62.00;;;;;;5014547;28;20423;-85
2022/06/23 12:53:51;;;;;;;2.70;2.40;;;31.60;61.70;;;;;;5019348;28;20516;-86
2022/06/23 12:56:39;;;;;;;3.83;2.40;;;31.70;61.60;;;;;;5011660;28;20423;-85
2022/06/23 12:59:11;;;;;;;5.23;2.70;;;31.80;61.30;;;;;;5012341;28;20513;-87
2022/06/23 13:02:00;;;;;;;3.53;2.87;;;32.00;60.60;;;;;;5005927;28;20554;-86
2022/06/23 13:04:49;;;;;;;2.20;2.00;;;32.00;60.30;;;;;;4991343;28;20481;-83
2022/06/23 13:07:31;;;;;;;2.67;2.40;;;32.10;59.70;;;;;;5012150;28;20454;-84
2022/06/23 13:10:19;;;;;;;6.60;2.60;;;32.20;61.00;;;;;;5006791;28;20962;-86
2022/06/23 13:13:03;;;;;;;2.83;2.20;;;32.30;60.50;;;;;;5004174;28;20525;-85
2022/06/23 13:15:58;;;;;;;2.40;1.97;;;32.40;59.60;;;;;;5012190;28;20527;-84
2022/06/23 13:18:37;;;;;;;2.37;2.03;;;32.40;58.30;;;;;;5014706;28;20540;-85
2022/06/23 13:21:27;;;;;;;4.00;2.17;;;32.30;56.60;;;;;;5004742;28;20426;-85
2022/06/23 13:24:03;;;;;;;9.43;2.40;;;32.30;57.10;;;;;;5014581;28;20420;-84
2022/06/23 13:26:46;;;;;;;6.13;2.70;;;32.30;57.70;;;;;;5009398;28;20450;-85
2022/06/23 13:29:17;;;;;;;2.47;2.30;;;32.40;57.80;;;;;;5014714;28;20513;-84
2022/06/23 13:31:47;;;;;;;2.27;2.10;;;32.50;58.30;;;;;;5013111;28;20470;-84
2022/06/23 13:34:27;;;;;;;2.70;1.97;;;32.60;58.00;;;;;;5018576;28;20535;-83
2022/06/23 13:37:30;;;;;;;7.10;2.40;;;32.70;58.20;;;;;;5017131;28;20998;-84
2022/06/23 13:40:18;;;;;;;4.03;2.10;;;32.80;56.20;;;;;;5016045;28;20447;-83
2022/06/23 13:43:19;;;;;;;2.30;2.10;;;32.80;56.50;;;;;;5001553;28;20431;-83
2022/06/23 13:45:54;;;;;;;3.30;2.70;;;32.80;56.70;;;;;;4961290;28;20689;-82
2022/06/23 13:48:31;;;;;;;2.50;2.20;;;32.80;57.30;;;;;;5009500;28;20871;-83
2022/06/23 13:51:00;;;;;;;1.97;1.90;;;33.00;57.20;;;;;;5015421;28;20439;-83
2022/06/23 13:54:01;;;;;;;2.53;2.27;;;33.00;56.40;;;;;;5008533;28;20448;-84
2022/06/23 13:56:38;;;;;;;2.70;2.23;;;33.10;56.10;;;;;;4979462;28;20423;-85
2022/06/23 13:59:23;;;;;;;2.63;2.13;;;33.30;57.90;;;;;;5017763;28;20422;-84
2022/06/23 14:02:26;;;;;;;2.60;2.00;;;33.40;56.90;;;;;;5008140;28;20454;-84
2022/06/23 14:04:59;;;;;;;2.50;2.30;;;33.40;54.80;;;;;;4969642;28;20434;-84
2022/06/23 14:07:40;;;;;;;4.33;2.63;;;33.30;54.30;;;;;;5030593;28;20439;-85